createdAt,value
2019-04-06T00:00:11.807Z,44.52
2019-04-06T00:01:11.849Z,44.54
2019-04-06T00:02:11.468Z,44.48
2019-04-06T00:03:11.461Z,44.55
2019-04-06T00:04:11.530Z,44.53
2019-04-06T00:05:11.509Z,44.54
2019-04-06T00:06:11.491Z,44.53
2019-04-06T00:07:11.408Z,44.54
2019-04-06T00:08:11.530Z,44.51
2019-04-06T00:09:11.606Z,44.56
2019-04-06T00:10:11.634Z,44.53
2019-04-06T00:11:11.347Z,44.53
2019-04-06T00:12:11.537Z,44.55
2019-04-06T00:13:11.480Z,44.52
2019-04-06T00:14:11.596Z,44.53
2019-04-06T00:15:11.631Z,44.56
2019-04-06T00:16:11.588Z,44.52
2019-04-06T00:17:11.636Z,44.52
2019-04-06T00:18:11.651Z,44.51
2019-04-06T00:19:11.654Z,44.55
2019-04-06T00:20:11.717Z,44.52
2019-04-06T00:21:11.694Z,44.57
2019-04-06T00:22:11.577Z,44.53
2019-04-06T00:23:11.788Z,44.53
2019-04-06T00:24:11.404Z,44.56
2019-04-06T00:25:11.777Z,44.52
2019-04-06T00:26:11.419Z,44.57
2019-04-06T00:27:11.460Z,44.51
2019-04-06T00:28:11.657Z,44.48
2019-04-06T00:29:11.703Z,44.51
2019-04-06T00:30:11.493Z,44.51
2019-04-06T00:31:11.501Z,44.53
2019-04-06T00:32:11.552Z,44.49
2019-04-06T00:33:11.527Z,44.49
2019-04-06T00:34:11.701Z,44.54
2019-04-06T00:35:11.446Z,44.53
2019-04-06T00:36:11.775Z,44.49
2019-04-06T00:37:11.704Z,44.54
2019-04-06T00:38:11.589Z,44.53
2019-04-06T00:39:11.451Z,44.58
2019-04-06T00:40:11.588Z,44.58
2019-04-06T00:41:11.880Z,44.56
2019-04-06T00:42:11.654Z,44.54
2019-04-06T00:43:11.616Z,44.53
2019-04-06T00:44:12.453Z,44.54
2019-04-06T00:45:11.512Z,44.54
2019-04-06T00:46:11.521Z,44.56
2019-04-06T00:47:11.558Z,44.51
2019-04-06T00:48:11.558Z,44.57
2019-04-06T00:49:11.449Z,44.58
2019-04-06T00:50:11.496Z,44.52
2019-04-06T00:51:11.479Z,44.53
2019-04-06T00:52:11.505Z,44.53
2019-04-06T00:53:11.616Z,44.56
2019-04-06T00:54:11.508Z,44.55
2019-04-06T00:55:11.918Z,44.53
2019-04-06T00:56:11.636Z,44.56
2019-04-06T00:57:11.633Z,44.56
2019-04-06T00:58:11.546Z,44.53
2019-04-06T00:59:11.562Z,44.51
2019-04-06T01:00:11.571Z,44.54
2019-04-06T01:01:11.492Z,44.53
2019-04-06T01:02:11.751Z,44.57
2019-04-06T01:03:11.345Z,44.52
2019-04-06T01:04:11.648Z,44.57
2019-04-06T01:05:11.653Z,44.55
2019-04-06T01:06:12.162Z,44.58
2019-04-06T01:07:11.420Z,44.51
2019-04-06T01:08:11.373Z,44.59
2019-04-06T01:09:11.427Z,44.57
2019-04-06T01:10:11.587Z,44.58
2019-04-06T01:11:11.459Z,44.52
2019-04-06T01:12:11.570Z,44.53
2019-04-06T01:13:11.458Z,44.55
2019-04-06T01:14:11.486Z,44.54
2019-04-06T01:15:11.452Z,44.55
2019-04-06T01:16:11.488Z,44.53
2019-04-06T01:17:11.625Z,44.54
2019-04-06T01:18:11.502Z,44.54
2019-04-06T01:19:11.276Z,44.53
2019-04-06T01:20:11.508Z,44.53
2019-04-06T01:21:11.551Z,44.55
2019-04-06T01:22:11.840Z,44.53
2019-04-06T01:23:11.418Z,44.54
2019-04-06T01:24:11.663Z,44.55
2019-04-06T01:25:11.621Z,44.53
2019-04-06T01:26:11.600Z,44.53
2019-04-06T01:27:11.567Z,44.51
2019-04-06T01:28:11.485Z,44.53
2019-04-06T01:29:11.565Z,44.56
2019-04-06T01:30:11.427Z,44.55
2019-04-06T01:31:11.372Z,44.54
2019-04-06T01:32:11.528Z,44.54
2019-04-06T01:33:11.492Z,44.61
2019-04-06T01:34:11.581Z,44.57
2019-04-06T01:35:11.515Z,44.56
2019-04-06T01:36:11.460Z,44.57
2019-04-06T01:37:11.515Z,44.52
2019-04-06T01:38:11.579Z,44.53
2019-04-06T01:39:11.431Z,44.56
2019-04-06T01:40:11.444Z,44.58
2019-04-06T01:41:11.661Z,44.53
2019-04-06T01:42:11.561Z,44.55
2019-04-06T01:43:11.546Z,44.55
2019-04-06T01:44:11.590Z,44.56
2019-04-06T01:45:11.612Z,44.53
2019-04-06T01:46:11.594Z,44.52
2019-04-06T01:47:11.731Z,44.54
2019-04-06T01:48:11.787Z,44.52
2019-04-06T01:49:11.977Z,44.52
2019-04-06T01:50:11.370Z,44.58
2019-04-06T01:51:11.531Z,44.53
2019-04-06T01:52:11.580Z,44.53
2019-04-06T01:53:11.427Z,44.58
2019-04-06T01:54:11.446Z,44.56
2019-04-06T01:55:11.432Z,44.57
2019-04-06T01:56:19.479Z,44.52
2019-04-06T01:57:11.467Z,44.52
2019-04-06T01:58:11.473Z,44.54
2019-04-06T01:59:11.601Z,44.54
2019-04-06T02:00:11.475Z,44.53
2019-04-06T02:01:11.692Z,44.58
2019-04-06T02:02:11.579Z,44.56
2019-04-06T02:03:11.403Z,44.54
2019-04-06T02:04:11.519Z,44.55
2019-04-06T02:05:11.573Z,44.53
2019-04-06T02:06:11.568Z,44.57
2019-04-06T02:07:11.579Z,44.55
2019-04-06T02:08:11.552Z,44.57
2019-04-06T02:09:11.531Z,44.55
2019-04-06T02:10:11.521Z,44.58
2019-04-06T02:11:11.461Z,44.56
2019-04-06T02:12:11.521Z,44.57
2019-04-06T02:13:11.497Z,44.57
2019-04-06T02:14:11.468Z,44.57
2019-04-06T02:15:11.503Z,44.53
2019-04-06T02:16:11.519Z,44.55
2019-04-06T02:17:11.465Z,44.53
2019-04-06T02:18:11.663Z,44.55
2019-04-06T02:19:11.494Z,44.55
2019-04-06T02:20:11.735Z,44.61
2019-04-06T02:21:11.550Z,44.59
2019-04-06T02:22:11.525Z,44.59
2019-04-06T02:23:11.422Z,44.56
2019-04-06T02:24:11.536Z,44.6
2019-04-06T02:25:11.536Z,44.59
2019-04-06T02:26:11.604Z,44.59
2019-04-06T02:27:11.398Z,44.56
2019-04-06T02:28:11.787Z,44.58
2019-04-06T02:29:11.647Z,44.58
2019-04-06T02:30:11.637Z,44.58
2019-04-06T02:31:11.376Z,44.57
2019-04-06T02:32:11.377Z,44.6
2019-04-06T02:33:15.259Z,44.54
2019-04-06T02:34:11.730Z,44.54
2019-04-06T02:35:11.452Z,44.53
2019-04-06T02:36:11.608Z,44.58
2019-04-06T02:37:11.655Z,44.57
2019-04-06T02:38:11.408Z,44.55
2019-04-06T02:39:11.496Z,44.59
2019-04-06T02:40:11.491Z,44.55
2019-04-06T02:41:11.620Z,44.57
2019-04-06T02:42:11.486Z,44.52
2019-04-06T02:43:11.712Z,44.55
2019-04-06T02:44:11.660Z,44.57
2019-04-06T02:45:11.711Z,44.54
2019-04-06T02:46:11.933Z,44.57
2019-04-06T02:47:11.554Z,44.64
2019-04-06T02:48:11.832Z,44.6
2019-04-06T02:49:11.610Z,44.6
2019-04-06T02:50:11.612Z,44.6
2019-04-06T02:51:11.507Z,44.57
2019-04-06T02:52:11.762Z,44.58
2019-04-06T02:53:11.442Z,44.6
2019-04-06T02:54:12.181Z,44.61
2019-04-06T02:55:11.386Z,44.58
2019-04-06T02:56:11.966Z,44.6
2019-04-06T02:57:11.707Z,44.61
2019-04-06T02:58:11.516Z,44.59
2019-04-06T02:59:11.524Z,44.6
2019-04-06T03:00:11.478Z,44.61
2019-04-06T03:01:11.497Z,44.56
2019-04-06T03:02:11.747Z,44.59
2019-04-06T03:03:11.434Z,44.61
2019-04-06T03:04:11.518Z,44.62
2019-04-06T03:05:11.607Z,44.59
2019-04-06T03:06:11.869Z,44.59
2019-04-06T03:07:11.297Z,44.56
2019-04-06T03:08:11.708Z,44.58
2019-04-06T03:09:12.590Z,44.62
2019-04-06T03:10:11.541Z,44.57
2019-04-06T03:11:11.612Z,44.57
2019-04-06T03:12:12.060Z,44.59
2019-04-06T03:13:11.679Z,44.63
2019-04-06T03:14:11.692Z,44.63
2019-04-06T03:15:11.525Z,44.61
2019-04-06T03:16:11.426Z,44.6
2019-04-06T03:17:11.587Z,44.63
2019-04-06T03:18:11.373Z,44.62
2019-04-06T03:19:11.454Z,44.62
2019-04-06T03:20:11.524Z,44.63
2019-04-06T03:21:11.416Z,44.6
2019-04-06T03:22:11.493Z,44.63
2019-04-06T03:23:11.387Z,44.62
2019-04-06T03:24:11.823Z,44.64
2019-04-06T03:25:11.554Z,44.68
2019-04-06T03:26:11.517Z,44.64
2019-04-06T03:27:11.538Z,44.65
2019-04-06T03:28:12.087Z,44.61
2019-04-06T03:29:11.548Z,44.6
2019-04-06T03:30:11.662Z,44.63
2019-04-06T03:31:11.657Z,44.61
2019-04-06T03:32:11.659Z,44.66
2019-04-06T03:33:12.271Z,44.67
2019-04-06T03:34:13.247Z,44.62
2019-04-06T03:35:12.253Z,44.6
2019-04-06T03:36:11.555Z,44.59
2019-04-06T03:37:11.682Z,44.62
2019-04-06T03:38:11.799Z,44.55
2019-04-06T03:39:18.350Z,44.57
2019-04-06T03:40:11.489Z,44.56
2019-04-06T03:41:11.425Z,44.57
2019-04-06T03:42:12.038Z,44.58
2019-04-06T03:43:11.492Z,44.51
2019-04-06T03:44:11.548Z,44.49
2019-04-06T03:45:11.714Z,44.54
2019-04-06T03:46:11.559Z,44.45
2019-04-06T03:47:11.720Z,44.52
2019-04-06T03:48:11.683Z,44.51
2019-04-06T03:49:11.753Z,44.48
2019-04-06T03:50:11.558Z,44.51
2019-04-06T03:51:11.549Z,44.45
2019-04-06T03:52:11.787Z,44.45
2019-04-06T03:53:11.958Z,44.46
2019-04-06T03:54:11.323Z,44.45
2019-04-06T03:55:11.883Z,44.43
2019-04-06T03:56:11.575Z,44.43
2019-04-06T03:57:17.778Z,44.42
2019-04-06T03:58:11.373Z,44.39
2019-04-06T03:59:12.212Z,44.35
2019-04-06T04:00:11.976Z,44.32
2019-04-06T04:01:11.318Z,44.3
2019-04-06T04:02:11.452Z,44.26
2019-04-06T04:03:11.777Z,44.28
2019-04-06T04:04:11.449Z,44.23
2019-04-06T04:05:11.473Z,44.21
2019-04-06T04:06:11.646Z,44.2
2019-04-06T04:07:11.479Z,44.18
2019-04-06T04:08:11.473Z,44.14
2019-04-06T04:09:11.775Z,44.19
2019-04-06T04:10:11.595Z,44.1
2019-04-06T04:11:11.995Z,44.11
2019-04-06T04:12:11.698Z,44.16
2019-04-06T04:13:11.421Z,44.07
2019-04-06T04:14:11.560Z,44.05
2019-04-06T04:15:11.617Z,44.05
2019-04-06T04:16:11.967Z,44.12
2019-04-06T04:17:11.577Z,44.07
2019-04-06T04:18:11.745Z,44.13
2019-04-06T04:19:11.365Z,44.1
2019-04-06T04:20:11.625Z,44.13
2019-04-06T04:21:11.982Z,44.14
2019-04-06T04:22:11.700Z,44.13
2019-04-06T04:23:11.487Z,44.13
2019-04-06T04:24:11.884Z,44.16
2019-04-06T04:25:11.539Z,44.11
2019-04-06T04:26:11.382Z,44.05
2019-04-06T04:27:11.500Z,44.09
2019-04-06T04:28:12.088Z,44.11
2019-04-06T04:29:11.628Z,44.19
2019-04-06T04:30:11.324Z,44.16
2019-04-06T04:31:11.531Z,44.18
2019-04-06T04:32:11.515Z,44.17
2019-04-06T04:33:11.487Z,44.19
2019-04-06T04:34:11.509Z,44.18
2019-04-06T04:35:11.905Z,44.21
2019-04-06T04:36:11.710Z,44.2
2019-04-06T04:37:11.587Z,44.17
2019-04-06T04:38:11.696Z,44.14
2019-04-06T04:39:11.588Z,44.19
2019-04-06T04:40:11.582Z,44.19
2019-04-06T04:41:11.698Z,44.19
2019-04-06T04:42:11.533Z,44.17
2019-04-06T04:43:11.413Z,44.19
2019-04-06T04:44:11.443Z,44.17
2019-04-06T04:45:11.609Z,44.2
2019-04-06T04:46:11.353Z,44.16
2019-04-06T04:47:11.668Z,44.18
2019-04-06T04:48:11.389Z,44.19
2019-04-06T04:49:11.362Z,44.19
2019-04-06T04:50:11.692Z,44.19
2019-04-06T04:51:11.424Z,44.16
2019-04-06T04:52:11.425Z,44.18
2019-04-06T04:53:11.477Z,44.15
2019-04-06T04:54:11.710Z,44.16
2019-04-06T04:55:11.583Z,44.21
2019-04-06T04:56:11.519Z,44.19
2019-04-06T04:57:11.767Z,44.14
2019-04-06T04:58:11.465Z,44.12
2019-04-06T04:59:11.517Z,44.2
2019-04-06T05:00:11.555Z,44.17
2019-04-06T05:01:11.670Z,44.16
2019-04-06T05:02:11.642Z,44.14
2019-04-06T05:03:11.632Z,44.12
2019-04-06T05:04:11.524Z,44.16
2019-04-06T05:05:11.480Z,44.19
2019-04-06T05:06:11.425Z,44.15
2019-04-06T05:07:11.500Z,44.1
2019-04-06T05:08:11.687Z,44.19
2019-04-06T05:09:11.556Z,44.13
2019-04-06T05:10:11.387Z,44.12
2019-04-06T05:11:11.460Z,44.14
2019-04-06T05:12:11.469Z,44.12
2019-04-06T05:13:11.709Z,44.11
2019-04-06T05:14:11.537Z,44.1
2019-04-06T05:15:11.478Z,44.1
2019-04-06T05:16:11.493Z,44.1
2019-04-06T05:17:11.506Z,44.05
2019-04-06T05:18:11.523Z,44.1
2019-04-06T05:19:11.559Z,44.06
2019-04-06T05:20:11.518Z,44.09
2019-04-06T05:21:11.839Z,44.04
2019-04-06T05:22:11.478Z,44.06
2019-04-06T05:23:11.566Z,44.05
2019-04-06T05:24:11.704Z,44.06
2019-04-06T05:25:11.425Z,44.05
2019-04-06T05:26:11.435Z,44.03
2019-04-06T05:27:11.759Z,44.04
2019-04-06T05:28:11.355Z,43.99
2019-04-06T05:29:11.446Z,44.05
2019-04-06T05:30:11.252Z,44.03
2019-04-06T05:31:11.331Z,44.02
2019-04-06T05:32:11.710Z,43.99
2019-04-06T05:33:11.575Z,44.05
2019-04-06T05:34:11.256Z,43.97
2019-04-06T05:35:11.442Z,44.01
2019-04-06T05:36:11.425Z,44.01
2019-04-06T05:37:11.455Z,43.95
2019-04-06T05:38:11.204Z,44.01
2019-04-06T05:39:11.443Z,43.95
2019-04-06T05:40:11.467Z,43.92
2019-04-06T05:41:11.522Z,43.96
2019-04-06T05:42:11.291Z,43.99
2019-04-06T05:43:11.721Z,43.9
2019-04-06T05:44:11.520Z,43.91
2019-04-06T05:45:11.437Z,43.92
2019-04-06T05:46:11.568Z,43.94
2019-04-06T05:47:11.775Z,43.89
2019-04-06T05:48:11.454Z,43.92
2019-04-06T05:49:11.379Z,43.9
2019-04-06T05:50:11.336Z,43.93
2019-04-06T05:51:11.605Z,43.94
2019-04-06T05:52:11.921Z,43.85
2019-04-06T05:53:11.557Z,43.88
2019-04-06T05:54:11.367Z,43.85
2019-04-06T05:55:11.460Z,43.88
2019-04-06T05:56:11.653Z,43.88
2019-04-06T05:57:11.812Z,43.86
2019-04-06T05:58:11.376Z,43.87
2019-04-06T05:59:11.456Z,43.82
2019-04-06T06:00:11.879Z,43.84
2019-04-06T06:01:11.924Z,43.86
2019-04-06T06:02:11.697Z,43.84
2019-04-06T06:03:12.013Z,43.83
2019-04-06T06:04:11.976Z,43.84
2019-04-06T06:05:11.725Z,43.77
2019-04-06T06:06:13.979Z,43.82
2019-04-06T06:07:11.597Z,43.8
2019-04-06T06:08:11.517Z,43.78
2019-04-06T06:09:11.298Z,43.81
2019-04-06T06:10:11.336Z,43.77
2019-04-06T06:11:11.421Z,43.77
2019-04-06T06:12:11.598Z,43.75
2019-04-06T06:13:11.434Z,43.74
2019-04-06T06:14:11.483Z,43.75
2019-04-06T06:15:11.396Z,43.72
2019-04-06T06:16:12.848Z,43.71
2019-04-06T06:17:14.322Z,43.73
2019-04-06T06:18:11.397Z,43.73
2019-04-06T06:19:12.510Z,43.71
2019-04-06T06:20:11.694Z,43.72
2019-04-06T06:21:11.489Z,43.69
2019-04-06T06:22:11.731Z,43.71
2019-04-06T06:23:11.715Z,43.72
2019-04-06T06:24:11.618Z,43.75
2019-04-06T06:25:11.394Z,43.71
2019-04-06T06:26:11.516Z,43.66
2019-04-06T06:27:11.479Z,43.69
2019-04-06T06:28:15.876Z,43.68
2019-04-06T06:29:11.665Z,43.68
2019-04-06T06:30:11.492Z,43.7
2019-04-06T06:31:11.370Z,43.7
2019-04-06T06:32:11.711Z,43.69
2019-04-06T06:33:11.406Z,43.63
2019-04-06T06:34:11.824Z,43.65
2019-04-06T06:35:11.512Z,43.67
2019-04-06T06:36:11.626Z,43.65
2019-04-06T06:37:11.758Z,43.62
2019-04-06T06:38:11.718Z,43.6
2019-04-06T06:39:11.562Z,43.66
2019-04-06T06:40:11.491Z,43.66
2019-04-06T06:41:11.589Z,43.65
2019-04-06T06:42:11.239Z,43.63
2019-04-06T06:43:11.590Z,43.63
2019-04-06T06:44:11.356Z,43.62
2019-04-06T06:45:11.325Z,43.61
2019-04-06T06:46:11.289Z,43.61
2019-04-06T06:47:11.303Z,43.61
2019-04-06T06:48:11.434Z,43.65
2019-04-06T06:49:11.454Z,43.61
2019-04-06T06:50:11.358Z,43.61
2019-04-06T06:51:11.743Z,43.63
2019-04-06T06:52:11.729Z,43.58
2019-04-06T06:53:11.438Z,43.62
2019-04-06T06:54:11.446Z,43.58
2019-04-06T06:55:11.846Z,43.58
2019-04-06T06:56:11.275Z,43.58
2019-04-06T06:57:11.393Z,43.57
2019-04-06T06:58:11.420Z,43.58
2019-04-06T06:59:11.562Z,43.61
2019-04-06T07:00:11.497Z,43.56
2019-04-06T07:01:11.780Z,43.55
2019-04-06T07:02:11.602Z,43.57
2019-04-06T07:03:11.679Z,43.57
2019-04-06T07:04:11.414Z,43.57
2019-04-06T07:05:11.352Z,43.55
2019-04-06T07:06:11.321Z,43.61
2019-04-06T07:07:11.377Z,43.59
2019-04-06T07:08:11.319Z,43.57
2019-04-06T07:09:11.346Z,43.61
2019-04-06T07:10:11.370Z,43.56
2019-04-06T07:11:11.445Z,43.56
2019-04-06T07:12:11.398Z,43.53
2019-04-06T07:13:12.045Z,43.56
2019-04-06T07:14:11.705Z,43.57
2019-04-06T07:15:11.445Z,43.58
2019-04-06T07:16:11.488Z,43.55
2019-04-06T07:17:11.457Z,43.5
2019-04-06T07:18:11.499Z,43.56
2019-04-06T07:19:11.468Z,43.52
2019-04-06T07:20:11.702Z,43.55
2019-04-06T07:21:11.417Z,43.53
2019-04-06T07:22:11.179Z,43.54
2019-04-06T07:23:11.345Z,43.54
2019-04-06T07:24:11.154Z,43.53
2019-04-06T07:25:11.210Z,43.55
2019-04-06T07:26:11.293Z,43.56
2019-04-06T07:27:11.251Z,43.51
2019-04-06T07:28:11.515Z,43.49
2019-04-06T07:29:11.393Z,43.51
2019-04-06T07:30:11.325Z,43.5
2019-04-06T07:31:11.382Z,43.5
2019-04-06T07:32:11.636Z,43.49
2019-04-06T07:33:11.423Z,43.5
2019-04-06T07:34:11.322Z,43.5
2019-04-06T07:35:11.303Z,43.51
2019-04-06T07:36:11.547Z,43.49
2019-04-06T07:37:11.322Z,43.47
2019-04-06T07:38:11.331Z,43.47
2019-04-06T07:39:11.514Z,43.49
2019-04-06T07:40:11.491Z,43.45
2019-04-06T07:41:11.381Z,43.47
2019-04-06T07:42:11.156Z,43.5
2019-04-06T07:43:11.137Z,43.44
2019-04-06T07:44:11.204Z,43.46
2019-04-06T07:45:11.212Z,43.4
2019-04-06T07:46:11.257Z,42.87
2019-04-06T07:47:11.250Z,42.72
2019-04-06T07:48:11.372Z,43.02
2019-04-06T07:49:11.363Z,43.05
2019-04-06T07:50:11.269Z,43.23
2019-04-06T07:51:11.304Z,43.28
2019-04-06T07:52:11.610Z,43.29
2019-04-06T07:53:11.326Z,43.27
2019-04-06T07:54:11.323Z,43.24
2019-04-06T07:55:11.413Z,43.27
2019-04-06T07:56:11.587Z,43.22
2019-04-06T07:57:11.381Z,43.23
2019-04-06T07:58:11.803Z,43.24
2019-04-06T07:59:11.808Z,43.14
2019-04-06T08:00:11.451Z,43.21
2019-04-06T08:01:11.448Z,43.16
2019-04-06T08:02:11.166Z,43.2
2019-04-06T08:03:11.107Z,43.15
2019-04-06T08:04:11.628Z,43.13
2019-04-06T08:05:11.446Z,43.14
2019-04-06T08:06:11.840Z,43.16
2019-04-06T08:07:11.273Z,43.14
2019-04-06T08:08:11.570Z,43.18
2019-04-06T08:09:11.251Z,43.16
2019-04-06T08:10:11.136Z,43.2
2019-04-06T08:11:11.217Z,43.18
2019-04-06T08:12:11.396Z,43.18
2019-04-06T08:13:11.420Z,43.17
2019-04-06T08:14:11.513Z,43.17
2019-04-06T08:15:11.284Z,43.16
2019-04-06T08:16:11.276Z,43.15
2019-04-06T08:17:11.388Z,43.27
2019-04-06T08:18:11.540Z,43.08
2019-04-06T08:19:11.398Z,43.28
2019-04-06T08:20:11.865Z,43.33
2019-04-06T08:21:11.657Z,43.42
2019-04-06T08:22:18.730Z,43.52
2019-04-06T08:23:11.162Z,43.51
2019-04-06T08:24:11.191Z,43.56
2019-04-06T08:25:11.693Z,43.37
2019-04-06T08:26:11.195Z,43.15
2019-04-06T08:27:11.294Z,43.38
2019-04-06T08:28:11.189Z,43.27
2019-04-06T08:29:11.571Z,43.34
2019-04-06T08:30:11.426Z,43.43
2019-04-06T08:31:11.375Z,43.3
2019-04-06T08:32:11.345Z,43.34
2019-04-06T08:33:11.237Z,43.28
2019-04-06T08:34:14.465Z,43.3
2019-04-06T08:35:11.360Z,43.27
2019-04-06T08:36:11.665Z,43.16
2019-04-06T08:37:11.346Z,43.35
2019-04-06T08:38:11.783Z,43.36
2019-04-06T08:39:11.517Z,43.52
2019-04-06T08:40:11.344Z,43.4
2019-04-06T08:41:11.444Z,43.33
2019-04-06T08:42:11.386Z,43.12
2019-04-06T08:43:11.201Z,43.1
2019-04-06T08:44:11.609Z,43
2019-04-06T08:45:14.703Z,43.08
2019-04-06T08:46:11.193Z,42.87
2019-04-06T08:47:11.569Z,42.91
2019-04-06T08:48:11.263Z,42.8
2019-04-06T08:49:11.137Z,42.83
2019-04-06T08:50:11.682Z,42.66
2019-04-06T08:51:11.482Z,42.85
2019-04-06T08:52:12.593Z,42.74
2019-04-06T08:53:11.120Z,42.65
2019-04-06T08:54:11.271Z,42.94
2019-04-06T08:55:11.556Z,42.95
2019-04-06T08:56:11.343Z,42.76
2019-04-06T08:57:12.322Z,42.8
2019-04-06T08:58:11.629Z,42.76
2019-04-06T08:59:14.003Z,42.81
2019-04-06T09:00:12.287Z,42.85
2019-04-06T09:01:11.540Z,42.89
2019-04-06T09:02:11.239Z,42.88
2019-04-06T09:03:11.145Z,42.91
2019-04-06T09:04:11.403Z,42.88
2019-04-06T09:05:11.270Z,42.9
2019-04-06T09:06:11.155Z,42.89
2019-04-06T09:07:11.586Z,42.92
2019-04-06T09:08:11.489Z,42.93
2019-04-06T09:09:11.305Z,42.93
2019-04-06T09:10:11.145Z,42.92
2019-04-06T09:11:11.593Z,43
2019-04-06T09:12:11.350Z,43.06
2019-04-06T09:13:11.235Z,43.12
2019-04-06T09:14:11.052Z,43.12
2019-04-06T09:15:11.532Z,43.15
2019-04-06T09:16:12.048Z,43.15
2019-04-06T09:17:11.309Z,43.14
2019-04-06T09:18:11.564Z,43.16
2019-04-06T09:19:11.318Z,43.16
2019-04-06T09:20:11.504Z,43.19
2019-04-06T09:21:11.702Z,43.22
2019-04-06T09:22:11.712Z,43.22
2019-04-06T09:23:11.148Z,43.19
2019-04-06T09:24:11.142Z,43.15
2019-04-06T09:25:11.167Z,43.17
2019-04-06T09:26:11.543Z,43.2
2019-04-06T09:27:11.181Z,43.18
2019-04-06T09:28:11.321Z,43.2
2019-04-06T09:29:25.253Z,43.22
2019-04-06T09:30:11.631Z,43.21
2019-04-06T09:31:11.207Z,43.16
2019-04-06T09:32:11.270Z,43.18
2019-04-06T09:33:11.262Z,43.22
2019-04-06T09:34:11.132Z,43.13
2019-04-06T09:35:11.540Z,43.18
2019-04-06T09:36:11.307Z,43.19
2019-04-06T09:37:11.490Z,43.2
2019-04-06T09:38:11.268Z,43.2
2019-04-06T09:39:11.744Z,43.21
2019-04-06T09:40:11.512Z,43.21
2019-04-06T09:41:11.123Z,43.21
2019-04-06T09:42:11.318Z,43.24
2019-04-06T09:43:11.113Z,43.23
2019-04-06T09:44:11.681Z,43.23
2019-04-06T09:45:11.704Z,43.26
2019-04-06T09:46:11.251Z,43.25
2019-04-06T09:47:11.574Z,43.28
2019-04-06T09:48:11.238Z,43.24
2019-04-06T09:49:11.402Z,43.59
2019-04-06T09:50:11.182Z,43.94
2019-04-06T09:51:11.255Z,45.38
2019-04-06T09:52:11.392Z,44.97
2019-04-06T09:53:11.302Z,44.84
2019-04-06T09:54:11.325Z,44.83
2019-04-06T09:55:11.283Z,45.02
2019-04-06T09:56:11.859Z,45.06
2019-04-06T09:57:11.348Z,45.11
2019-04-06T09:58:11.325Z,45.09
2019-04-06T09:59:11.377Z,45.08
2019-04-06T10:00:11.157Z,45.14
2019-04-06T10:01:11.178Z,45.08
2019-04-06T10:02:11.469Z,45.08
2019-04-06T10:03:11.270Z,44.95
2019-04-06T10:04:11.160Z,44.99
2019-04-06T10:05:12.134Z,44.93
2019-04-06T10:06:11.198Z,45.05
2019-04-06T10:07:11.243Z,45.04
2019-04-06T10:08:11.526Z,45.11
2019-04-06T10:09:11.244Z,45.11
2019-04-06T10:10:11.071Z,45.14
2019-04-06T10:11:11.614Z,45.2
2019-04-06T10:12:11.453Z,45.2
2019-04-06T10:13:11.276Z,44.97
2019-04-06T10:14:11.342Z,45.11
2019-04-06T10:15:11.867Z,44.8
2019-04-06T10:16:11.684Z,44.95
2019-04-06T10:17:11.581Z,44.8
2019-04-06T10:18:11.669Z,44.92
2019-04-06T10:19:11.190Z,44.87
2019-04-06T10:20:11.098Z,44.76
2019-04-06T10:21:11.133Z,44.75
2019-04-06T10:22:11.136Z,44.74
2019-04-06T10:23:11.187Z,44.67
2019-04-06T10:24:11.201Z,44.62
2019-04-06T10:25:11.963Z,44.62
2019-04-06T10:26:11.286Z,44.57
2019-04-06T10:27:11.531Z,44.57
2019-04-06T10:28:11.583Z,44.54
2019-04-06T10:29:11.385Z,44.62
2019-04-06T10:30:11.362Z,44.56
2019-04-06T10:31:11.562Z,44.45
2019-04-06T10:32:11.588Z,44.42
2019-04-06T10:33:11.393Z,44.45
2019-04-06T10:34:11.310Z,44.4
2019-04-06T10:35:11.438Z,44.43
2019-04-06T10:36:11.307Z,44.45
2019-04-06T10:37:11.325Z,44.48
2019-04-06T10:38:11.284Z,44.51
2019-04-06T10:39:11.239Z,44.49
2019-04-06T10:40:11.089Z,44.45
2019-04-06T10:41:11.549Z,44.41
2019-04-06T10:42:11.532Z,44.37
2019-04-06T10:43:11.131Z,44.42
2019-04-06T10:44:11.455Z,44.39
2019-04-06T10:45:11.181Z,44.34
2019-04-06T10:46:11.196Z,44.33
2019-04-06T10:47:11.596Z,44.37
2019-04-06T10:48:11.286Z,44.3
2019-04-06T10:49:11.583Z,44.31
2019-04-06T10:50:11.467Z,44.31
2019-04-06T10:51:11.223Z,44.3
2019-04-06T10:52:11.315Z,44.33
2019-04-06T10:53:11.275Z,44.31
2019-04-06T10:54:11.235Z,44.31
2019-04-06T10:55:11.896Z,44.33
2019-04-06T10:56:11.855Z,44.39
2019-04-06T10:57:11.452Z,44.45
2019-04-06T10:58:11.065Z,44.43
2019-04-06T10:59:11.163Z,44.41
2019-04-06T11:00:11.227Z,44.45
2019-04-06T11:01:11.377Z,44.46
2019-04-06T11:02:11.183Z,44.46
2019-04-06T11:03:11.207Z,44.47
2019-04-06T11:04:11.332Z,44.45
2019-04-06T11:05:11.212Z,44.5
2019-04-06T11:06:11.211Z,44.5
2019-04-06T11:07:11.332Z,44.72
2019-04-06T11:08:11.279Z,44.67
2019-04-06T11:09:11.247Z,44.53
2019-04-06T11:10:11.496Z,44.45
2019-04-06T11:11:11.408Z,44.45
2019-04-06T11:12:11.466Z,44.42
2019-04-06T11:13:11.324Z,44.45
2019-04-06T11:14:11.204Z,44.41
2019-04-06T11:15:11.143Z,44.42
2019-04-06T11:16:11.007Z,44.4
2019-04-06T11:17:11.115Z,44.39
2019-04-06T11:18:11.134Z,44.38
2019-04-06T11:19:11.415Z,44.35
2019-04-06T11:20:11.072Z,44.35
2019-04-06T11:21:11.293Z,44.36
2019-04-06T11:22:11.154Z,44.35
2019-04-06T11:23:11.211Z,44.35
2019-04-06T11:24:11.206Z,44.35
2019-04-06T11:25:11.178Z,44.33
2019-04-06T11:26:11.205Z,44.34
2019-04-06T11:27:11.230Z,44.31
2019-04-06T11:28:11.865Z,44.3
2019-04-06T11:29:11.231Z,44.31
2019-04-06T11:30:15.699Z,44.28
2019-04-06T11:31:11.243Z,44.32
2019-04-06T11:32:11.428Z,44.33
2019-04-06T11:33:11.156Z,44.28
2019-04-06T11:34:11.074Z,44.29
2019-04-06T11:35:11.428Z,44.3
2019-04-06T11:36:11.433Z,44.29
2019-04-06T11:37:11.078Z,44.32
2019-04-06T11:38:11.234Z,44.31
2019-04-06T11:39:11.141Z,44.32
2019-04-06T11:40:11.241Z,44.31
2019-04-06T11:41:11.226Z,44.31
2019-04-06T11:42:11.658Z,44.27
2019-04-06T11:43:11.105Z,44.31
2019-04-06T11:44:11.336Z,44.26
2019-04-06T11:45:11.180Z,44.3
2019-04-06T11:46:11.197Z,44.31
2019-04-06T11:47:11.485Z,44.27
2019-04-06T11:48:11.227Z,44.32
2019-04-06T11:49:11.380Z,44.28
2019-04-06T11:50:11.282Z,44.3
2019-04-06T11:51:11.314Z,44.29
2019-04-06T11:52:11.535Z,44.28
2019-04-06T11:53:11.173Z,44.33
2019-04-06T11:54:11.479Z,44.33
2019-04-06T11:55:11.053Z,44.35
2019-04-06T11:56:11.571Z,44.27
2019-04-06T11:57:11.167Z,44.31
2019-04-06T11:58:11.202Z,44.24
2019-04-06T11:59:11.146Z,44.32
2019-04-06T12:00:28.264Z,44.3
2019-04-06T12:01:11.248Z,44.26
2019-04-06T12:02:11.201Z,44.27
2019-04-06T12:03:11.215Z,44.29
2019-04-06T12:04:11.526Z,44.27
2019-04-06T12:05:11.213Z,44.3
2019-04-06T12:06:11.537Z,44.25
2019-04-06T12:07:11.456Z,44.28
2019-04-06T12:08:11.552Z,44.26
2019-04-06T12:09:11.201Z,44.31
2019-04-06T12:10:11.788Z,44.28
2019-04-06T12:11:11.307Z,44.3
2019-04-06T12:12:11.166Z,44.31
2019-04-06T12:13:11.480Z,44.3
2019-04-06T12:14:11.180Z,44.33
2019-04-06T12:15:11.094Z,44.29
2019-04-06T12:16:11.209Z,44.27
2019-04-06T12:17:11.200Z,44.29
2019-04-06T12:18:11.218Z,44.31
2019-04-06T12:19:11.106Z,44.32
2019-04-06T12:20:11.260Z,44.3
2019-04-06T12:21:11.172Z,44.26
2019-04-06T12:22:11.316Z,44.34
2019-04-06T12:23:11.188Z,44.28
2019-04-06T12:24:11.567Z,44.35
2019-04-06T12:25:11.481Z,44.35
2019-04-06T12:26:11.105Z,44.52
2019-04-06T12:27:11.288Z,44.61
2019-04-06T12:28:11.403Z,44.71
2019-04-06T12:29:11.479Z,44.71
2019-04-06T12:30:11.003Z,44.66
2019-04-06T12:31:11.080Z,44.61
2019-04-06T12:32:11.313Z,44.67
2019-04-06T12:33:11.203Z,44.75
2019-04-06T12:34:11.431Z,44.73
2019-04-06T12:35:11.070Z,44.71
2019-04-06T12:36:11.637Z,44.75
2019-04-06T12:37:11.422Z,44.7
2019-04-06T12:38:11.146Z,44.71
2019-04-06T12:39:11.152Z,44.79
2019-04-06T12:40:11.909Z,44.82
2019-04-06T12:41:11.687Z,44.89
2019-04-06T12:42:11.593Z,45.06
2019-04-06T12:43:12.033Z,45.06
2019-04-06T12:44:11.239Z,45.12
2019-04-06T12:45:11.719Z,45.11
2019-04-06T12:46:11.050Z,45.05
2019-04-06T12:47:12.659Z,44.98
2019-04-06T12:48:11.382Z,44.98
2019-04-06T12:49:11.328Z,45
2019-04-06T12:50:11.062Z,44.97
2019-04-06T12:51:11.046Z,44.96
2019-04-06T12:52:11.265Z,45.03
2019-04-06T12:53:11.593Z,45.02
2019-04-06T12:54:11.009Z,45.05
2019-04-06T12:55:11.102Z,45.11